LJDI weather

Divača Airport
Divaca, Slovenia

Public forecast

Using degrees Celsius for public forecast. Weather courtesy of forecast.io.

METAR (pilot weather report)

Closest report is Portoroz Airport, 20.6 nm (38.1 km) SW. Retrieved 2019/09/22 23:30 UTC (0 seconds ago):

LJPZ 222330Z AUTO 02001KT 9999 SCT009/// BKN013/// BKN019/// 16/16 Q1015

TAF (pilot weather forecast)

Closest forecast is Trieste–Friuli Venezia Giulia Airport, 23.9 nm (44.2 km) WNW. Retrieved 2019/09/22 18:21 UTC (5 hours ago):

TAF LIPQ 221700Z 2218/2318 VRB05KT 9999 BKN060 TEMPO 2220/2306 4000 RA TEMPO 2309/2318 4000 TSRA